createdAt,value
2019-06-26T00:00:47.211Z,12.53
2019-06-26T00:02:13.334Z,12.23
2019-06-26T00:03:38.980Z,10.10
2019-06-26T00:05:05.609Z,11.67
2019-06-26T00:06:31.153Z,11.40
2019-06-26T00:07:57.403Z,11.80
2019-06-26T00:09:22.877Z,11.10
2019-06-26T00:10:49.063Z,11.97
2019-06-26T00:12:14.677Z,11.20
2019-06-26T00:13:40.960Z,11.57
2019-06-26T00:15:06.815Z,11.27
2019-06-26T00:16:32.928Z,13.23
2019-06-26T00:17:58.445Z,11.13
2019-06-26T00:19:24.617Z,11.20
2019-06-26T00:20:50.124Z,12.57
2019-06-26T00:22:16.385Z,12.20
2019-06-26T00:23:41.971Z,12.60
2019-06-26T00:25:08.527Z,13.03
2019-06-26T00:26:34.048Z,12.40
2019-06-26T00:28:00.145Z,12.10
2019-06-26T00:29:25.816Z,11.90
2019-06-26T00:30:51.864Z,13.40
2019-06-26T00:32:17.412Z,12.80
2019-06-26T00:33:43.551Z,12.03
2019-06-26T00:35:09.268Z,12.93
2019-06-26T00:36:35.544Z,14.40
2019-06-26T00:38:01.047Z,16.97
2019-06-26T00:39:27.198Z,15.43
2019-06-26T00:40:52.684Z,14.10
2019-06-26T00:42:18.774Z,17.47
2019-06-26T00:43:44.357Z,16.27
2019-06-26T00:45:10.739Z,18.10
2019-06-26T00:46:36.256Z,17.33
2019-06-26T00:48:02.466Z,16.10
2019-06-26T00:49:28.146Z,17.00
2019-06-26T00:50:54.372Z,15.93
2019-06-26T00:52:20.003Z,16.30
2019-06-26T00:53:46.088Z,15.30
2019-06-26T00:55:11.951Z,15.43
2019-06-26T00:56:38.182Z,15.80
2019-06-26T00:58:03.789Z,15.40
2019-06-26T00:59:30.040Z,14.60
2019-06-26T01:00:55.666Z,15.73
2019-06-26T01:02:21.907Z,16.40
2019-06-26T02:44:06.680Z,14.87
2019-06-26T02:45:32.961Z,13.70
2019-06-26T02:47:17.740Z,13.13
2019-06-26T02:48:26.304Z,13.40
2019-06-26T02:49:51.836Z,14.80
2019-06-26T02:51:18.056Z,13.10
2019-06-26T02:52:43.772Z,12.83
2019-06-26T02:54:09.841Z,13.20
2019-06-26T02:55:35.377Z,13.90
2019-06-26T02:57:01.482Z,13.73
2019-06-26T02:58:27.139Z,13.10
2019-06-26T02:59:53.452Z,13.10
2019-06-26T03:01:19.104Z,14.47
2019-06-26T03:02:45.211Z,12.77
2019-06-26T03:04:10.685Z,12.67
2019-06-26T03:05:36.794Z,13.43
2019-06-26T03:07:02.348Z,12.30
2019-06-26T03:08:28.614Z,12.77
2019-06-26T03:09:54.322Z,13.03
2019-06-26T03:11:20.538Z,14.83
2019-06-26T03:12:46.136Z,12.23
2019-06-26T03:14:12.261Z,13.20
2019-06-26T03:15:37.778Z,12.97
2019-06-26T03:17:03.898Z,12.90
2019-06-26T03:18:29.678Z,11.60
2019-06-26T03:19:55.890Z,11.83
2019-06-26T03:21:21.481Z,12.20
2019-06-26T03:22:47.629Z,12.77
2019-06-26T03:24:13.209Z,12.67
2019-06-26T03:25:39.389Z,12.03
2019-06-26T03:27:04.971Z,13.97
2019-06-26T03:28:31.235Z,12.40
2019-06-26T03:29:56.777Z,12.20
2019-06-26T03:31:23.065Z,12.50
2019-06-26T03:32:48.696Z,12.53
2019-06-26T03:34:14.826Z,13.20
2019-06-26T03:35:40.981Z,13.70
2019-06-26T03:37:07.576Z,11.70
2019-06-26T03:38:33.132Z,12.00
2019-06-26T03:39:59.189Z,13.77
2019-06-26T03:41:24.886Z,12.30
2019-06-26T03:42:50.960Z,14.20
2019-06-26T03:44:16.685Z,12.80
2019-06-26T03:45:42.828Z,14.27
2019-06-26T03:47:08.369Z,14.87
2019-06-26T03:48:34.514Z,13.87
2019-06-26T03:50:00.035Z,14.70
2019-06-26T03:51:26.260Z,13.43
2019-06-26T03:52:51.839Z,12.87
2019-06-26T03:54:18.135Z,13.27
2019-06-26T03:55:43.770Z,14.27
2019-06-26T03:57:09.834Z,13.27
2019-06-26T03:58:35.356Z,14.10
2019-06-26T04:00:01.975Z,13.40
2019-06-26T04:01:27.608Z,14.07
2019-06-26T04:02:53.715Z,13.33
2019-06-26T04:04:19.287Z,13.07
2019-06-26T04:05:45.396Z,14.13
2019-06-26T04:07:10.924Z,13.90
2019-06-26T04:08:37.017Z,13.50
2019-06-26T04:10:02.547Z,13.07
2019-06-26T04:11:28.688Z,13.43
2019-06-26T04:12:54.192Z,14.30
2019-06-26T04:14:20.312Z,14.20
2019-06-26T04:15:45.853Z,14.30
2019-06-26T04:17:12.169Z,14.67
2019-06-26T04:18:37.687Z,13.53
2019-06-26T04:20:03.806Z,14.70
2019-06-26T04:21:29.322Z,14.40
2019-06-26T04:22:55.538Z,13.97
2019-06-26T04:24:21.107Z,14.23
2019-06-26T04:25:47.379Z,13.23
2019-06-26T04:27:12.872Z,13.70
2019-06-26T04:28:38.933Z,14.40
2019-06-26T04:30:05.095Z,14.70
2019-06-26T04:31:31.279Z,14.50
2019-06-26T04:32:56.863Z,14.40
2019-06-26T04:34:22.956Z,15.60
2019-06-26T04:35:48.560Z,14.80
2019-06-26T04:37:14.762Z,14.60
2019-06-26T04:38:40.403Z,15.53
2019-06-26T04:40:07.070Z,15.20
2019-06-26T04:41:32.539Z,15.30
2019-06-26T04:42:58.614Z,16.73
2019-06-26T04:44:24.360Z,16.03
2019-06-26T04:45:58.146Z,15.80
2019-06-26T04:47:17.633Z,15.80
2019-06-26T04:48:43.823Z,16.60
2019-06-26T04:50:10.063Z,17.10
2019-06-26T04:51:36.196Z,17.23
2019-06-26T04:53:01.870Z,16.27
2019-06-26T04:54:28.070Z,15.30
2019-06-26T04:55:53.695Z,13.90
2019-06-26T04:57:19.880Z,13.90
2019-06-26T04:58:45.411Z,13.97
2019-06-26T05:00:13.791Z,14.80
2019-06-26T05:01:39.302Z,14.17
2019-06-26T05:03:05.900Z,13.87
2019-06-26T05:04:31.418Z,11.90
2019-06-26T05:05:57.535Z,12.63
2019-06-26T05:07:23.070Z,12.63
2019-06-26T05:08:49.307Z,12.00
2019-06-26T05:10:16.450Z,12.63
2019-06-26T05:11:42.513Z,11.37
2019-06-26T05:13:08.105Z,11.53
2019-06-26T05:14:34.219Z,11.80
2019-06-26T05:16:13.857Z,13.13
2019-06-26T05:17:28.160Z,10.90
2019-06-26T05:18:53.687Z,11.40
2019-06-26T05:20:20.101Z,11.50
2019-06-26T05:21:45.704Z,11.23
2019-06-26T05:23:11.888Z,12.00
2019-06-26T05:24:37.399Z,11.50
2019-06-26T05:26:03.567Z,12.20
2019-06-26T05:27:29.068Z,10.70
2019-06-26T05:28:55.186Z,12.80
2019-06-26T05:30:21.612Z,13.23
2019-06-26T05:31:47.835Z,11.90
2019-06-26T05:33:13.459Z,13.67
2019-06-26T05:34:39.532Z,14.13
2019-06-26T05:36:05.224Z,14.60
2019-06-26T05:37:31.421Z,14.90
2019-06-26T05:38:56.904Z,13.00
2019-06-26T05:40:23.610Z,14.27
2019-06-26T05:41:49.250Z,14.83
2019-06-26T05:43:15.310Z,16.83
2019-06-26T05:44:40.821Z,14.70
2019-06-26T05:46:07.105Z,14.77
2019-06-26T05:47:32.771Z,15.87
2019-06-26T05:48:58.844Z,17.30
2019-06-26T05:50:25.767Z,17.43
2019-06-26T05:51:52.140Z,15.50
2019-06-26T05:53:17.695Z,17.80
2019-06-26T05:54:43.753Z,18.27
2019-06-26T05:56:09.269Z,18.87
2019-06-26T05:57:35.535Z,16.40
2019-06-26T05:59:01.012Z,17.40
2019-06-26T06:00:27.254Z,15.97
2019-06-26T06:01:52.869Z,17.23
2019-06-26T06:03:19.056Z,16.80
2019-06-26T06:04:44.553Z,17.10
2019-06-26T06:06:10.758Z,17.90
2019-06-26T06:07:36.323Z,17.90
2019-06-26T06:09:02.670Z,17.20
2019-06-26T06:10:28.275Z,17.47
2019-06-26T06:11:54.424Z,16.33
2019-06-26T06:13:19.952Z,16.03
2019-06-26T06:14:46.175Z,17.07
2019-06-26T06:16:11.892Z,16.63
2019-06-26T06:17:38.118Z,16.40
2019-06-26T06:19:03.678Z,15.53
2019-06-26T06:20:38.755Z,15.73
2019-06-26T06:22:04.350Z,16.23
2019-06-26T06:23:30.462Z,15.93
2019-06-26T06:24:55.955Z,16.40
2019-06-26T06:26:22.195Z,15.83
2019-06-26T06:27:47.719Z,16.00
2019-06-26T06:29:13.812Z,15.33
2019-06-26T06:30:39.410Z,15.43
2019-06-26T06:32:05.639Z,14.70
2019-06-26T06:33:31.135Z,16.00
2019-06-26T06:34:57.219Z,16.60
2019-06-26T06:36:22.745Z,15.87
2019-06-26T06:37:48.956Z,17.70
2019-06-26T06:39:14.450Z,15.37
2019-06-26T06:40:40.619Z,16.27
2019-06-26T06:42:06.241Z,14.97
2019-06-26T06:43:32.386Z,14.70
2019-06-26T06:44:58.032Z,14.07
2019-06-26T06:46:24.327Z,14.57
2019-06-26T06:47:50.066Z,15.13
2019-06-26T06:49:16.153Z,14.90
2019-06-26T06:50:41.683Z,14.93
2019-06-26T06:52:07.948Z,15.00
2019-06-26T06:53:33.587Z,14.47
2019-06-26T06:54:59.706Z,14.63
2019-06-26T06:56:25.234Z,14.50
2019-06-26T06:57:51.394Z,13.57
2019-06-26T06:59:16.974Z,15.20
2019-06-26T07:00:43.229Z,14.67
2019-06-26T07:02:08.936Z,15.60
2019-06-26T07:03:35.145Z,14.03
2019-06-26T07:05:00.773Z,14.90
2019-06-26T07:06:26.943Z,14.33
2019-06-26T07:07:52.531Z,14.70
2019-06-26T07:09:18.693Z,14.37
2019-06-26T07:10:44.845Z,14.43
2019-06-26T07:12:11.155Z,18.20
2019-06-26T07:13:36.807Z,18.63
2019-06-26T07:15:03.061Z,17.33
2019-06-26T07:16:28.631Z,17.67
2019-06-26T07:17:55.335Z,14.97
2019-06-26T07:19:20.892Z,13.80
2019-06-26T07:20:47.120Z,14.20
2019-06-26T07:22:12.637Z,14.03
2019-06-26T07:23:38.843Z,14.80
2019-06-26T07:25:04.493Z,15.10
2019-06-26T07:26:30.731Z,13.83
2019-06-26T07:27:56.334Z,14.37
2019-06-26T07:29:24.209Z,12.77
2019-06-26T07:30:49.778Z,13.40
2019-06-26T07:32:15.812Z,13.83
2019-06-26T07:33:41.575Z,14.27
2019-06-26T07:35:07.914Z,14.73
2019-06-26T07:36:33.495Z,15.93
2019-06-26T07:38:00.296Z,15.13
2019-06-26T07:39:26.220Z,13.80
2019-06-26T07:40:52.763Z,14.93
2019-06-26T07:42:18.436Z,14.87
2019-06-26T07:43:44.611Z,15.90
2019-06-26T07:45:10.427Z,15.03
2019-06-26T07:46:36.513Z,15.87
2019-06-26T07:48:02.053Z,14.73
2019-06-26T07:49:28.409Z,14.60
2019-06-26T07:50:54.335Z,14.23
2019-06-26T07:52:20.730Z,15.10
2019-06-26T07:53:46.471Z,16.00
2019-06-26T07:55:13.118Z,15.70
2019-06-26T07:56:38.618Z,15.80
2019-06-26T07:58:04.773Z,14.10
2019-06-26T07:59:30.296Z,13.77
2019-06-26T08:00:56.488Z,15.47
2019-06-26T08:02:22.058Z,14.83
2019-06-26T08:03:48.179Z,15.40
2019-06-26T08:05:13.936Z,15.80
2019-06-26T08:06:40.056Z,15.90
2019-06-26T08:08:05.663Z,14.10
2019-06-26T08:09:31.829Z,15.63
2019-06-26T08:10:57.509Z,15.17
2019-06-26T08:12:25.542Z,16.03
2019-06-26T08:13:51.120Z,14.97
2019-06-26T08:15:19.061Z,15.07
2019-06-26T08:16:44.535Z,15.50
2019-06-26T08:18:10.667Z,16.23
2019-06-26T08:19:36.227Z,15.20
2019-06-26T08:21:12.116Z,15.53
2019-06-26T08:22:29.749Z,15.77
2019-06-26T08:23:59.284Z,15.20
2019-06-26T08:25:34.910Z,15.50
2019-06-26T08:27:03.429Z,14.47
2019-06-26T08:28:28.902Z,13.67
2019-06-26T08:29:55.291Z,15.13
2019-06-26T08:31:21.332Z,15.07
2019-06-26T08:32:47.531Z,14.40
2019-06-26T08:34:13.114Z,14.40
2019-06-26T08:35:39.309Z,14.17
2019-06-26T08:37:05.032Z,15.10
2019-06-26T08:38:31.504Z,14.90
2019-06-26T08:39:57.034Z,15.27
2019-06-26T08:41:23.684Z,14.93
2019-06-26T08:42:49.508Z,14.57
2019-06-26T08:44:15.887Z,16.50
2019-06-26T08:45:41.804Z,17.20
2019-06-26T08:47:08.250Z,15.90
2019-06-26T08:48:39.394Z,17.40
2019-06-26T08:50:02.175Z,15.87
2019-06-26T08:51:28.337Z,15.50
2019-06-26T08:52:54.743Z,15.43
2019-06-26T08:54:20.572Z,15.00
2019-06-26T08:55:46.765Z,15.20
2019-06-26T08:57:12.764Z,15.50
2019-06-26T08:58:39.199Z,15.77
2019-06-26T09:00:05.495Z,14.73
2019-06-26T09:01:32.011Z,14.80
2019-06-26T09:02:57.507Z,14.50
2019-06-26T09:04:23.670Z,14.20
2019-06-26T09:05:49.565Z,14.97
2019-06-26T09:07:15.768Z,14.63
2019-06-26T09:08:41.371Z,15.13
2019-06-26T09:10:07.825Z,14.83
2019-06-26T09:11:33.387Z,15.90
2019-06-26T09:12:59.859Z,14.85
2019-06-26T09:14:25.691Z,16.10
2019-06-26T09:15:51.941Z,15.47
2019-06-26T09:17:18.347Z,14.90
2019-06-26T09:18:44.427Z,15.63
2019-06-26T09:20:10.579Z,15.40
2019-06-26T09:21:36.748Z,15.83
2019-06-26T09:23:02.679Z,14.43
2019-06-26T09:24:28.964Z,14.20
2019-06-26T09:25:54.669Z,15.63
2019-06-26T09:27:20.889Z,15.50
2019-06-26T09:28:46.732Z,16.00
2019-06-26T09:30:13.227Z,14.37
2019-06-26T09:31:38.808Z,15.43
2019-06-26T09:33:05.085Z,15.23
2019-06-26T09:34:30.587Z,14.63
2019-06-26T09:35:56.927Z,14.77
2019-06-26T09:37:22.543Z,15.00
2019-06-26T09:38:48.679Z,16.50
2019-06-26T09:40:14.524Z,14.70
2019-06-26T09:41:40.673Z,14.90
2019-06-26T09:43:06.280Z,15.37
2019-06-26T09:44:32.369Z,15.23
2019-06-26T09:45:58.356Z,13.90
2019-06-26T09:47:24.624Z,14.50
2019-06-26T09:48:53.258Z,15.10
2019-06-26T09:50:18.476Z,15.43
2019-06-26T09:51:44.151Z,15.17
2019-06-26T09:53:10.228Z,15.50
2019-06-26T09:54:35.716Z,14.40
2019-06-26T09:56:01.825Z,15.40
2019-06-26T09:57:27.583Z,15.90
2019-06-26T09:58:53.855Z,16.30
2019-06-26T10:00:20.541Z,15.17
2019-06-26T10:01:46.747Z,16.50
2019-06-26T10:03:12.341Z,15.70
2019-06-26T10:04:38.552Z,15.83
2019-06-26T10:06:04.193Z,17.37
2019-06-26T10:07:30.322Z,16.97
2019-06-26T10:08:55.890Z,16.53
2019-06-26T10:10:22.186Z,15.83
2019-06-26T10:11:47.752Z,17.77
2019-06-26T10:13:13.819Z,17.30
2019-06-26T10:14:47.199Z,15.70
2019-06-26T10:16:07.287Z,16.57
2019-06-26T10:17:32.960Z,18.60
2019-06-26T10:19:09.453Z,16.53
2019-06-26T10:20:26.324Z,15.47
2019-06-26T10:21:52.460Z,17.80
2019-06-26T10:23:18.042Z,17.03
2019-06-26T10:24:44.212Z,16.97
2019-06-26T11:24:37.159Z,20.07
2019-06-26T11:26:04.683Z,19.43
2019-06-26T11:27:30.309Z,18.27
2019-06-26T11:28:56.442Z,18.10
2019-06-26T11:30:24.456Z,18.40
2019-06-26T11:31:50.633Z,18.47
2019-06-26T11:33:16.149Z,18.80
2019-06-26T11:34:42.281Z,19.43
2019-06-26T11:36:07.728Z,19.17
2019-06-26T11:37:33.859Z,18.10
2019-06-26T11:38:59.414Z,18.10
2019-06-26T11:40:25.544Z,18.67
2019-06-26T11:41:51.042Z,20.10
2019-06-26T11:43:17.159Z,18.33
2019-06-26T11:44:42.640Z,18.07
2019-06-26T11:46:08.728Z,18.47
2019-06-26T11:47:34.312Z,18.50
2019-06-26T11:49:00.547Z,16.77
2019-06-26T11:50:26.192Z,18.23
2019-06-26T11:51:52.309Z,18.00
2019-06-26T11:53:17.872Z,19.27
2019-06-26T11:54:44.142Z,18.67
2019-06-26T11:56:10.331Z,18.27
2019-06-26T11:57:36.587Z,17.57
2019-06-26T11:59:02.315Z,17.27
2019-06-26T12:00:28.824Z,18.63
2019-06-26T12:01:54.377Z,16.97
2019-06-26T12:03:20.867Z,17.23
2019-06-26T12:04:46.606Z,17.57
2019-06-26T12:06:18.916Z,17.07
2019-06-26T12:07:40.079Z,17.50
2019-06-26T12:09:09.330Z,17.60
2019-06-26T12:10:35.002Z,16.80
2019-06-26T12:12:01.225Z,15.67
2019-06-26T12:13:26.761Z,18.43
2019-06-26T12:14:53.026Z,18.00
2019-06-26T12:16:18.550Z,17.47
2019-06-26T12:17:44.748Z,16.60
2019-06-26T12:19:10.376Z,17.40
2019-06-26T12:20:36.676Z,16.53
2019-06-26T12:22:02.276Z,18.00
2019-06-26T12:23:28.431Z,19.00
2019-06-26T12:24:53.993Z,17.30
2019-06-26T12:26:20.224Z,18.67
2019-06-26T12:27:45.952Z,17.60
2019-06-26T12:29:12.056Z,16.50
2019-06-26T12:30:37.714Z,19.20
2019-06-26T12:32:04.137Z,17.60
2019-06-26T12:33:29.665Z,17.00
2019-06-26T12:34:55.878Z,18.13
2019-06-26T12:36:21.418Z,16.33
2019-06-26T12:37:47.633Z,17.93
2019-06-26T12:39:13.199Z,16.90
2019-06-26T12:40:39.727Z,17.13
2019-06-26T12:42:05.631Z,18.67
2019-06-26T12:43:31.843Z,19.27
2019-06-26T12:44:57.389Z,17.87
2019-06-26T12:46:23.765Z,18.10
2019-06-26T12:47:49.438Z,18.63
2019-06-26T12:49:15.527Z,16.90
2019-06-26T12:50:41.173Z,17.93
2019-06-26T12:52:07.473Z,16.23
2019-06-26T12:53:34.633Z,16.47
2019-06-26T12:55:00.794Z,17.00
2019-06-26T12:56:26.356Z,16.07
2019-06-26T12:57:52.513Z,19.33
2019-06-26T12:59:18.225Z,17.30
2019-06-26T13:00:44.482Z,17.73
2019-06-26T13:02:10.278Z,16.03
2019-06-26T13:03:36.430Z,18.47
2019-06-26T13:05:04.976Z,17.83
2019-06-26T13:06:31.033Z,17.37
2019-06-26T13:07:56.549Z,16.23
2019-06-26T13:09:22.893Z,16.07
2019-06-26T13:10:50.752Z,19.20
2019-06-26T13:12:17.005Z,16.70
2019-06-26T13:13:42.884Z,17.87
2019-06-26T13:15:09.842Z,17.60
2019-06-26T13:16:35.473Z,17.20
2019-06-26T13:18:01.994Z,18.73
2019-06-26T13:19:27.523Z,17.90
2019-06-26T13:20:53.947Z,21.93
2019-06-26T13:22:19.571Z,15.63
2019-06-26T13:23:45.724Z,17.87
2019-06-26T13:25:15.671Z,16.80
2019-06-26T13:26:39.900Z,18.43
2019-06-26T13:28:05.657Z,17.27
2019-06-26T13:29:31.757Z,18.57
2019-06-26T13:30:57.276Z,18.30
2019-06-26T13:32:23.363Z,17.00
2019-06-26T13:33:48.891Z,16.23
2019-06-26T13:35:15.538Z,17.27
2019-06-26T13:36:41.347Z,15.03
2019-06-26T13:38:07.654Z,17.10
2019-06-26T13:39:33.414Z,17.03
2019-06-26T13:40:59.536Z,17.20
2019-06-26T13:42:25.083Z,15.53
2019-06-26T13:43:51.198Z,16.83
2019-06-26T13:45:17.323Z,15.80
2019-06-26T13:46:43.527Z,15.57
2019-06-26T13:48:09.193Z,16.30
2019-06-26T13:49:35.546Z,17.23
2019-06-26T13:51:09.151Z,16.57
2019-06-26T13:52:29.001Z,17.03
2019-06-26T13:53:54.511Z,18.73
2019-06-26T13:55:20.879Z,16.23
2019-06-26T13:56:46.403Z,18.00
2019-06-26T13:58:12.621Z,20.73
2019-06-26T13:59:38.357Z,17.97
2019-06-26T14:01:04.435Z,20.07
2019-06-26T14:02:29.960Z,16.30
2019-06-26T14:03:56.079Z,17.47
2019-06-26T14:05:21.911Z,18.17
2019-06-26T14:06:48.246Z,17.90
2019-06-26T14:08:13.784Z,16.50
2019-06-26T14:09:39.913Z,16.30
2019-06-26T14:11:07.581Z,17.10
2019-06-26T14:12:33.399Z,16.50
2019-06-26T14:13:58.975Z,18.40
2019-06-26T14:15:25.291Z,18.83
2019-06-26T14:16:50.857Z,17.90
2019-06-26T14:18:16.993Z,17.37
2019-06-26T14:19:53.072Z,19.03
2019-06-26T14:21:25.770Z,16.00
2019-06-26T14:22:46.491Z,16.73
2019-06-26T14:24:12.776Z,17.57
2019-06-26T14:25:38.681Z,17.60
2019-06-26T14:27:05.055Z,18.90
2019-06-26T14:28:30.686Z,17.80
2019-06-26T14:29:56.777Z,16.93
2019-06-26T14:31:22.320Z,17.60
2019-06-26T14:32:48.568Z,17.00
2019-06-26T14:34:14.063Z,18.00
2019-06-26T14:35:40.279Z,18.53
2019-06-26T14:37:05.923Z,17.20
2019-06-26T14:38:32.155Z,18.13
2019-06-26T14:39:57.700Z,16.50
2019-06-26T14:41:24.031Z,17.30
2019-06-26T14:42:49.640Z,17.30
2019-06-26T14:44:15.879Z,18.27
2019-06-26T14:45:41.642Z,18.80
2019-06-26T14:47:30.685Z,17.87
2019-06-26T14:48:56.784Z,17.93
2019-06-26T14:50:23.123Z,18.27
2019-06-26T14:51:49.260Z,17.83
2019-06-26T14:53:14.837Z,17.67
2019-06-26T14:54:41.228Z,17.87
2019-06-26T14:56:06.899Z,16.67
2019-06-26T14:57:33.046Z,17.77
2019-06-26T14:58:58.558Z,18.10
2019-06-26T15:00:25.083Z,18.33
2019-06-26T15:01:50.669Z,17.67
2019-06-26T15:03:16.814Z,18.40
2019-06-26T15:04:46.008Z,18.80
2019-06-26T15:06:16.260Z,18.17
2019-06-26T15:07:37.391Z,17.70
2019-06-26T15:09:03.448Z,18.63
2019-06-26T15:10:28.973Z,19.40
2019-06-26T15:11:55.138Z,16.40
2019-06-26T15:13:20.663Z,17.00
2019-06-26T15:14:46.781Z,17.50
2019-06-26T15:16:12.275Z,17.87
2019-06-26T15:17:38.513Z,17.77
2019-06-26T15:19:04.005Z,18.10
2019-06-26T15:20:30.197Z,17.93
2019-06-26T15:21:58.794Z,16.73
2019-06-26T15:23:23.611Z,17.70
2019-06-26T15:24:49.440Z,20.57
2019-06-26T15:26:15.588Z,18.93
2019-06-26T15:27:41.231Z,18.30
2019-06-26T15:29:07.355Z,18.13
2019-06-26T15:30:32.817Z,18.90
2019-06-26T15:31:58.928Z,15.90
2019-06-26T15:33:24.520Z,16.90
2019-06-26T15:34:50.687Z,17.50
2019-06-26T15:36:16.189Z,17.30
2019-06-26T15:37:44.774Z,18.87
2019-06-26T15:39:09.726Z,18.97
2019-06-26T15:40:35.932Z,18.50
2019-06-26T15:42:01.441Z,17.23
2019-06-26T15:43:27.544Z,19.60
2019-06-26T15:44:53.231Z,17.83
2019-06-26T15:46:19.316Z,20.10
2019-06-26T15:47:44.863Z,18.40
2019-06-26T15:49:10.968Z,21.20
2019-06-26T15:50:36.789Z,17.63
2019-06-26T15:52:14.531Z,20.40
2019-06-26T15:53:30.148Z,18.37
2019-06-26T15:54:56.259Z,18.70
2019-06-26T15:56:21.892Z,18.00
2019-06-26T15:57:47.979Z,19.63
2019-06-26T15:59:13.516Z,19.73
2019-06-26T16:00:39.757Z,21.93
2019-06-26T16:02:05.469Z,19.40
2019-06-26T16:03:31.621Z,20.67
2019-06-26T16:04:57.154Z,21.47
2019-06-26T16:06:23.369Z,22.00
2019-06-26T16:07:48.973Z,20.97
2019-06-26T16:09:15.112Z,21.77
2019-06-26T16:10:40.631Z,22.00
2019-06-26T16:12:06.908Z,22.80
2019-06-26T16:13:32.424Z,23.57
2019-06-26T16:14:58.545Z,24.90
2019-06-26T16:16:24.868Z,22.73
2019-06-26T16:18:04.762Z,30.40
2019-06-26T16:19:30.315Z,32.50
2019-06-26T16:20:56.543Z,31.63
2019-06-26T16:22:31.607Z,21.43
2019-06-26T16:23:49.987Z,24.23
2019-06-26T16:25:16.019Z,57.47
2019-06-26T16:26:42.187Z,29.10
2019-06-26T16:28:07.924Z,31.30
2019-06-26T16:29:34.123Z,41.20
2019-06-26T16:30:59.860Z,42.93
2019-06-26T16:32:26.064Z,30.30
2019-06-26T16:33:51.599Z,49.43
2019-06-26T16:35:18.112Z,38.83
2019-06-26T16:36:43.750Z,30.90
2019-06-26T16:38:09.859Z,31.17
2019-06-26T16:39:35.517Z,26.17
2019-06-26T16:41:01.580Z,26.37
2019-06-26T16:42:27.067Z,23.20
2019-06-26T16:43:53.185Z,21.90
2019-06-26T16:45:19.033Z,24.60
2019-06-26T16:46:45.166Z,22.73
2019-06-26T16:48:10.756Z,24.13
2019-06-26T16:49:36.868Z,23.67
2019-06-26T16:51:02.401Z,21.70
2019-06-26T16:52:28.556Z,22.30
2019-06-26T16:53:54.067Z,24.37
2019-06-26T16:55:20.178Z,24.10
2019-06-26T16:56:45.855Z,20.57
2019-06-26T16:58:12.060Z,21.40
2019-06-26T16:59:37.579Z,21.80
2019-06-26T17:01:03.824Z,23.67
2019-06-26T17:02:29.350Z,23.80
2019-06-26T17:03:55.424Z,20.73
2019-06-26T17:05:21.072Z,19.77
2019-06-26T17:06:47.220Z,21.47
2019-06-26T17:08:12.851Z,22.60
2019-06-26T17:09:39.146Z,19.97
2019-06-26T17:11:04.775Z,20.10
2019-06-26T17:12:30.987Z,19.07
2019-06-26T17:13:56.515Z,21.37
2019-06-26T17:15:22.841Z,19.40
2019-06-26T17:16:48.378Z,18.90
2019-06-26T17:18:14.456Z,21.53
2019-06-26T17:19:40.073Z,19.43
2019-06-26T17:21:06.421Z,17.63
2019-06-26T17:22:32.034Z,18.43
2019-06-26T17:23:58.180Z,19.20
2019-06-26T17:25:23.936Z,19.97
2019-06-26T17:26:50.053Z,22.20
2019-06-26T17:28:15.580Z,19.23
2019-06-26T17:29:41.647Z,19.75
2019-06-26T17:31:07.233Z,19.53
2019-06-26T17:32:33.283Z,19.07
2019-06-26T17:33:58.772Z,19.90
2019-06-26T17:35:24.876Z,21.20
2019-06-26T17:36:50.404Z,20.87
2019-06-26T17:38:16.597Z,18.13
2019-06-26T17:39:42.080Z,19.07
2019-06-26T17:41:08.328Z,20.33
2019-06-26T17:42:33.864Z,20.40
2019-06-26T17:43:59.988Z,19.20
2019-06-26T17:45:25.656Z,18.40
2019-06-26T17:46:51.840Z,18.27
2019-06-26T17:48:17.371Z,18.40
2019-06-26T17:49:43.505Z,18.63
2019-06-26T17:51:09.032Z,18.90
2019-06-26T17:52:38.262Z,17.50
2019-06-26T17:54:02.528Z,19.73
2019-06-26T17:55:28.670Z,18.50
2019-06-26T17:56:54.242Z,18.37
2019-06-26T17:58:20.448Z,20.00
2019-06-26T19:44:14.523Z,22.90
2019-06-26T19:45:40.698Z,23.13
2019-06-26T19:47:06.340Z,20.70
2019-06-26T19:48:32.485Z,23.30
2019-06-26T19:49:58.142Z,23.20
2019-06-26T19:51:27.636Z,22.10
2019-06-26T19:52:53.128Z,21.40
2019-06-26T19:54:27.529Z,19.93
2019-06-26T19:55:46.339Z,20.07
2019-06-26T19:57:12.462Z,21.40
2019-06-26T19:58:38.024Z,21.00
2019-06-26T20:00:04.202Z,21.90
2019-06-26T20:01:29.827Z,20.30
2019-06-26T20:02:56.000Z,22.53
2019-06-26T20:04:21.629Z,21.53
2019-06-26T20:05:48.762Z,21.20
2019-06-26T20:07:14.379Z,22.40
2019-06-26T20:08:53.101Z,21.70
2019-06-26T20:10:08.616Z,23.00
2019-06-26T20:11:34.703Z,21.97
2019-06-26T20:13:00.394Z,22.70
2019-06-26T20:14:26.475Z,22.07
2019-06-26T20:15:52.096Z,23.27
2019-06-26T20:17:18.258Z,23.27
2019-06-26T20:18:43.830Z,22.30
2019-06-26T20:20:10.651Z,23.07
2019-06-26T20:21:36.172Z,21.67
2019-06-26T20:23:02.514Z,21.00
2019-06-26T20:24:42.811Z,21.13
2019-06-26T20:25:55.907Z,21.97
2019-06-26T20:27:21.455Z,21.30
2019-06-26T20:28:47.563Z,24.30
2019-06-26T20:30:13.961Z,23.30
2019-06-26T20:31:40.032Z,22.10
2019-06-26T20:33:05.572Z,22.27
2019-06-26T20:34:31.699Z,22.20
2019-06-26T20:35:57.296Z,22.00
2019-06-26T20:37:23.511Z,21.83
2019-06-26T20:38:49.059Z,22.77
2019-06-26T20:40:15.457Z,21.07
2019-06-26T20:41:41.169Z,20.70
2019-06-26T20:43:07.416Z,21.40
2019-06-26T20:44:33.026Z,22.73
2019-06-26T20:45:59.252Z,22.40
2019-06-26T20:47:24.960Z,21.67
2019-06-26T20:48:51.054Z,21.63
2019-06-26T20:50:17.306Z,22.33
2019-06-26T20:51:43.515Z,22.27
2019-06-26T20:53:09.056Z,22.57
2019-06-26T20:54:35.194Z,21.80
2019-06-26T20:56:00.688Z,21.47
2019-06-26T20:57:26.848Z,22.03
2019-06-26T20:58:52.992Z,21.47
2019-06-26T21:00:22.440Z,21.30
2019-06-26T21:01:46.511Z,21.67
2019-06-26T21:03:12.608Z,21.53
2019-06-26T21:04:38.164Z,20.17
2019-06-26T21:06:04.419Z,21.70
2019-06-26T21:07:29.984Z,19.00
2019-06-26T21:08:56.168Z,21.10
2019-06-26T21:10:21.849Z,21.90
2019-06-26T21:11:47.964Z,23.47
2019-06-26T21:13:13.498Z,21.60
2019-06-26T21:14:39.842Z,22.67
2019-06-26T21:16:05.467Z,20.60
2019-06-26T21:17:31.559Z,20.33
2019-06-26T21:18:57.619Z,22.47
2019-06-26T21:20:23.720Z,20.77
2019-06-26T21:21:49.355Z,20.90
2019-06-26T21:23:18.879Z,21.27
2019-06-26T21:24:42.589Z,20.35
2019-06-26T21:26:08.698Z,22.50
2019-06-26T21:27:34.349Z,21.00
2019-06-26T21:29:00.974Z,21.70
2019-06-26T21:30:26.689Z,21.03
2019-06-26T21:31:52.809Z,21.93
2019-06-26T21:33:18.443Z,22.30
2019-06-26T21:34:44.510Z,22.10
2019-06-26T21:36:10.063Z,23.03
2019-06-26T21:37:36.235Z,22.57
2019-06-26T21:39:01.766Z,22.37
2019-06-26T21:40:27.901Z,22.80
2019-06-26T21:41:53.438Z,23.03
2019-06-26T21:43:19.611Z,23.60
2019-06-26T21:44:45.179Z,22.90
2019-06-26T21:46:11.353Z,23.20
2019-06-26T21:47:36.888Z,23.73
2019-06-26T21:49:03.105Z,22.93
2019-06-26T21:50:29.220Z,23.03
2019-06-26T21:51:55.431Z,22.57
2019-06-26T21:53:20.917Z,23.33
2019-06-26T21:54:46.985Z,24.17
2019-06-26T21:56:12.590Z,21.93
2019-06-26T21:57:38.696Z,23.00
2019-06-26T21:59:04.204Z,22.57
2019-06-26T22:00:32.577Z,24.97
2019-06-26T22:01:58.346Z,25.03
2019-06-26T22:03:24.540Z,25.87
2019-06-26T22:04:50.130Z,27.30
2019-06-26T22:06:16.480Z,26.70
2019-06-26T22:07:42.164Z,27.00
2019-06-26T22:09:09.184Z,26.70
2019-06-26T22:10:34.707Z,25.83
2019-06-26T22:12:01.006Z,24.87
2019-06-26T22:13:26.635Z,25.07
2019-06-26T22:14:52.728Z,25.30
2019-06-26T22:16:18.297Z,30.07
2019-06-26T22:17:44.515Z,29.27
2019-06-26T22:19:10.044Z,28.57
2019-06-26T22:20:36.244Z,30.93
2019-06-26T22:22:01.876Z,34.33
2019-06-26T22:23:28.103Z,32.87
2019-06-26T22:24:53.731Z,36.37
2019-06-26T22:26:19.936Z,36.63
2019-06-26T22:27:45.479Z,36.73
2019-06-26T22:29:11.730Z,36.57
2019-06-26T22:30:37.432Z,35.27
2019-06-26T22:32:03.642Z,34.77
2019-06-26T22:33:29.279Z,33.83
2019-06-26T22:34:55.451Z,32.83
2019-06-26T22:36:21.005Z,34.70
2019-06-26T22:37:47.272Z,35.67
2019-06-26T22:39:13.000Z,37.93
2019-06-26T22:40:39.117Z,35.57
2019-06-26T22:42:04.677Z,34.73
2019-06-26T22:43:30.855Z,32.80
2019-06-26T22:44:56.381Z,34.37
2019-06-26T22:46:22.517Z,33.70
2019-06-26T22:47:48.135Z,33.53
2019-06-26T22:49:14.292Z,31.93
2019-06-26T22:50:39.834Z,33.80
2019-06-26T22:52:06.023Z,31.60